Byron, Oklahoma
Current Conditions -  °F | °C
As of 4:35 AM on Friday 21 Nov 2014 (Local Time) from KAVK Reporting Station
Overcast Overcast  
Wind Chill: -5°   Ceiling: 1100
Heat Index:   Visibility: 10mi
Dew Point: -3°   Wind: 10mph
Humidity: 80%   Direction: 40°NE
Pressure: 30.08"   Gusts: NA
Location:  36.916°N, 98.4369°W
Report Text: KAVK 211035Z AUTO 04009KT 10SM OVC011 00/M03 A3008 RMK AO2
Loading
Personal Weather Stations






























Interactive Weather Map New forecast layout! Learn more

10-Day Weather Forecast

Advertisements
Track Severe Weather on mobile